createdAt,value
2019-03-08T00:02:29.515Z,1.12
2019-03-08T00:05:15.967Z,0.93
2019-03-08T00:08:02.063Z,1.00
2019-03-08T00:10:48.276Z,1.25
2019-03-08T00:13:34.704Z,1.00
2019-03-08T00:16:21.158Z,1.45
2019-03-08T00:19:07.668Z,1.80
2019-03-08T00:21:54.030Z,1.22
2019-03-08T00:24:40.524Z,1.60
2019-03-08T00:27:27.038Z,1.67
2019-03-08T00:30:14.304Z,0.82
2019-03-08T00:33:00.788Z,1.82
2019-03-08T00:35:47.727Z,2.37
2019-03-08T00:38:33.969Z,1.50
2019-03-08T00:41:20.319Z,1.10
2019-03-08T00:44:06.606Z,1.00
2019-03-08T00:46:53.019Z,0.82
2019-03-08T00:49:39.221Z,1.00
2019-03-08T00:52:25.719Z,1.02
2019-03-08T00:55:12.407Z,1.35
2019-03-08T00:57:58.979Z,1.15
2019-03-08T01:00:45.032Z,1.22
2019-03-08T01:03:30.912Z,1.92
2019-03-08T01:06:17.180Z,0.98
2019-03-08T01:09:05.417Z,1.27
2019-03-08T01:11:53.439Z,1.72
2019-03-08T01:14:39.731Z,1.07
2019-03-08T01:17:26.039Z,0.90
2019-03-08T01:20:13.691Z,1.17
2019-03-08T01:22:59.719Z,0.93
2019-03-08T01:25:46.116Z,0.80
2019-03-08T01:28:34.295Z,1.72
2019-03-08T01:31:20.828Z,1.22
2019-03-08T01:34:07.226Z,1.90
2019-03-08T01:36:53.485Z,0.88
2019-03-08T01:39:39.747Z,0.50
2019-03-08T01:42:26.120Z,1.52
2019-03-08T01:45:12.927Z,1.60
2019-03-08T01:47:58.667Z,0.85
2019-03-08T01:50:44.984Z,0.47
2019-03-08T01:53:31.282Z,1.07
2019-03-08T01:56:17.644Z,1.30
2019-03-08T01:59:04.204Z,1.95
2019-03-08T02:01:50.465Z,1.87
2019-03-08T02:04:36.833Z,1.07
2019-03-08T02:07:23.549Z,1.42
2019-03-08T02:10:11.423Z,1.17
2019-03-08T02:12:57.377Z,2.37
2019-03-08T02:15:43.972Z,1.75
2019-03-08T02:18:30.258Z,1.05
2019-03-08T02:21:16.477Z,0.78
2019-03-08T02:24:02.830Z,0.98
2019-03-08T02:26:49.464Z,1.45
2019-03-08T02:29:36.411Z,1.60
2019-03-08T02:32:23.391Z,1.40
2019-03-08T02:35:09.667Z,1.47
2019-03-08T02:37:55.940Z,1.85
2019-03-08T02:40:42.521Z,1.57
2019-03-08T02:43:28.892Z,1.40
2019-03-08T02:46:15.268Z,1.17
2019-03-08T02:49:01.700Z,1.62
2019-03-08T02:51:47.972Z,1.17
2019-03-08T02:54:34.818Z,1.22
2019-03-08T02:57:21.255Z,1.85
2019-03-08T03:00:09.367Z,1.95
2019-03-08T03:02:55.436Z,1.32
2019-03-08T03:05:42.092Z,2.30
2019-03-08T03:08:28.087Z,1.12
2019-03-08T03:11:14.439Z,1.25
2019-03-08T03:14:00.657Z,1.67
2019-03-08T03:16:47.163Z,1.20
2019-03-08T03:19:33.437Z,2.30
2019-03-08T03:22:20.481Z,1.67
2019-03-08T03:25:07.212Z,3.08
2019-03-08T03:27:53.550Z,1.52
2019-03-08T03:30:39.889Z,1.30
2019-03-08T03:33:26.225Z,1.00
2019-03-08T03:36:12.679Z,0.95
2019-03-08T03:38:59.049Z,0.90
2019-03-08T03:41:45.541Z,1.52
2019-03-08T03:44:32.219Z,1.00
2019-03-08T03:47:18.334Z,2.95
2019-03-08T03:50:06.028Z,1.07
2019-03-08T03:52:52.315Z,2.08
2019-03-08T03:55:38.439Z,0.93
2019-03-08T03:58:24.835Z,1.50
2019-03-08T04:01:23.971Z,1.62
2019-03-08T04:04:09.892Z,1.77
2019-03-08T04:06:56.843Z,2.15
2019-03-08T04:09:43.171Z,1.50
2019-03-08T04:12:29.583Z,1.32
2019-03-08T04:15:16.209Z,2.58
2019-03-08T04:18:02.755Z,1.85
2019-03-08T04:20:48.940Z,1.32
2019-03-08T04:23:35.497Z,1.15
2019-03-08T04:26:21.775Z,0.95
2019-03-08T04:29:08.109Z,1.50
2019-03-08T04:31:54.965Z,0.90
2019-03-08T04:34:41.233Z,1.87
2019-03-08T04:37:27.647Z,1.55
2019-03-08T04:40:14.597Z,1.40
2019-03-08T04:43:00.907Z,1.40
2019-03-08T04:45:47.615Z,1.72
2019-03-08T04:48:34.061Z,2.85
2019-03-08T04:51:20.373Z,1.30
2019-03-08T04:54:06.671Z,1.27
2019-03-08T04:56:54.159Z,1.72
2019-03-08T04:59:40.439Z,1.12
2019-03-08T05:02:27.768Z,1.98
2019-03-08T05:05:14.326Z,2.08
2019-03-08T05:08:00.368Z,0.72
2019-03-08T05:10:46.721Z,2.12
2019-03-08T05:13:33.091Z,1.70
2019-03-08T05:16:20.424Z,1.57
2019-03-08T05:19:06.803Z,0.80
2019-03-08T05:21:53.167Z,0.65
2019-03-08T05:24:39.607Z,0.88
2019-03-08T05:27:25.887Z,1.12
2019-03-08T05:30:12.564Z,1.02
2019-03-08T05:32:58.533Z,1.20
2019-03-08T05:35:45.019Z,2.27
2019-03-08T05:38:31.372Z,1.12
2019-03-08T05:41:17.645Z,1.70
2019-03-08T05:44:04.089Z,1.47
2019-03-08T05:46:50.399Z,1.42
2019-03-08T05:49:36.709Z,0.60
2019-03-08T05:52:23.608Z,1.60
2019-03-08T05:55:09.831Z,0.85
2019-03-08T05:57:57.137Z,1.15
2019-03-08T06:00:43.527Z,0.80
2019-03-08T06:03:30.246Z,1.67
2019-03-08T06:06:16.522Z,0.93
2019-03-08T06:09:05.891Z,2.45
2019-03-08T06:11:51.914Z,1.87
2019-03-08T06:14:38.539Z,1.10
2019-03-08T06:17:24.881Z,1.95
2019-03-08T06:20:11.053Z,1.77
2019-03-08T06:22:57.471Z,1.20
2019-03-08T06:25:43.933Z,1.77
2019-03-08T06:28:30.253Z,0.70
2019-03-08T06:31:16.604Z,1.25
2019-03-08T06:34:03.050Z,1.50
2019-03-08T06:36:49.403Z,1.00
2019-03-08T06:39:35.746Z,1.12
2019-03-08T06:42:22.358Z,2.75
2019-03-08T06:45:11.049Z,2.08
2019-03-08T06:47:57.142Z,1.27
2019-03-08T06:50:43.497Z,0.78
2019-03-08T06:53:29.791Z,1.22
2019-03-08T06:56:16.174Z,0.50
2019-03-08T06:59:13.843Z,1.45
2019-03-08T07:02:00.202Z,1.52
2019-03-08T07:04:47.010Z,0.82
2019-03-08T07:07:33.851Z,1.57
2019-03-08T07:10:20.185Z,1.80
2019-03-08T07:13:06.679Z,3.65
2019-03-08T07:15:53.023Z,1.65
2019-03-08T07:18:39.203Z,2.15
2019-03-08T07:21:38.775Z,0.82
2019-03-08T07:24:34.161Z,1.42
2019-03-08T07:27:42.712Z,2.08
2019-03-08T07:30:57.942Z,1.62
2019-03-08T07:33:53.235Z,1.17
2019-03-08T07:36:56.679Z,1.37
2019-03-08T07:40:05.441Z,1.75
2019-03-08T07:43:23.310Z,1.45
2019-03-08T07:46:28.178Z,1.32
2019-03-08T07:49:31.200Z,1.42
2019-03-08T07:52:36.016Z,1.72
2019-03-08T07:55:41.182Z,1.87
2019-03-08T07:58:55.499Z,1.00
2019-03-08T08:01:56.906Z,1.87
2019-03-08T08:05:09.148Z,1.42
2019-03-08T08:08:02.337Z,1.27
2019-03-08T08:11:08.878Z,2.05
2019-03-08T08:14:29.037Z,1.55
2019-03-08T08:17:22.868Z,0.82
2019-03-08T08:20:16.863Z,1.70
2019-03-08T08:23:15.959Z,3.33
2019-03-08T08:26:13.207Z,1.25
2019-03-08T08:29:07.713Z,1.02
2019-03-08T08:32:11.631Z,1.37
2019-03-08T08:35:23.275Z,2.37
2019-03-08T08:38:19.460Z,1.42
2019-03-08T08:41:13.308Z,1.87
2019-03-08T08:44:17.968Z,1.57
2019-03-08T08:47:20.033Z,2.83
2019-03-08T08:50:23.535Z,2.25
2019-03-08T08:53:22.925Z,1.47
2019-03-08T08:56:31.274Z,2.00
2019-03-08T08:59:23.581Z,1.57
2019-03-08T09:02:20.245Z,0.85
2019-03-08T09:05:28.804Z,2.75
2019-03-08T09:08:34.368Z,2.10
2019-03-08T09:11:44.058Z,2.00
2019-03-08T09:14:33.124Z,2.35
2019-03-08T09:17:28.014Z,5.75
2019-03-08T09:20:38.529Z,1.87
2019-03-08T09:23:48.409Z,4.03
2019-03-08T09:26:54.978Z,3.10
2019-03-08T09:30:03.457Z,2.95
2019-03-08T09:33:02.407Z,2.50
2019-03-08T09:36:08.340Z,3.33
2019-03-08T09:39:20.032Z,2.67
2019-03-08T09:42:14.277Z,3.62
2019-03-08T09:45:32.536Z,5.55
2019-03-08T09:48:36.889Z,3.85
2019-03-08T09:51:35.225Z,4.10
2019-03-08T09:54:39.493Z,5.15
2019-03-08T09:57:42.075Z,4.20
2019-03-08T10:00:47.981Z,5.28
2019-03-08T10:03:56.643Z,3.87
2019-03-08T10:06:59.696Z,3.67
2019-03-08T10:09:52.863Z,7.80
2019-03-08T10:12:45.032Z,5.00
2019-03-08T10:15:50.847Z,7.47
2019-03-08T10:18:54.502Z,6.53
2019-03-08T10:21:59.102Z,6.25
2019-03-08T10:25:04.864Z,5.65
2019-03-08T10:27:59.526Z,8.18
2019-03-08T10:31:14.063Z,7.28
2019-03-08T10:34:28.508Z,3.87
2019-03-08T10:37:35.501Z,7.20
2019-03-08T10:40:50.773Z,3.90
2019-03-08T10:44:15.539Z,6.30
2019-03-08T10:47:31.167Z,6.28
2019-03-08T10:50:36.287Z,5.80
2019-03-08T10:53:47.565Z,5.12
2019-03-08T10:56:59.810Z,6.65
2019-03-08T11:00:05.873Z,4.12
2019-03-08T11:03:21.231Z,6.30
2019-03-08T11:06:25.284Z,3.98
2019-03-08T11:09:45.347Z,7.53
2019-03-08T11:12:44.449Z,5.97
2019-03-08T11:15:49.203Z,5.40
2019-03-08T11:18:57.973Z,3.65
2019-03-08T11:21:55.371Z,5.72
2019-03-08T11:25:10.833Z,5.62
2019-03-08T11:28:03.579Z,5.17
2019-03-08T11:31:01.125Z,4.47
2019-03-08T11:34:05.504Z,3.02
2019-03-08T11:37:04.308Z,3.60
2019-03-08T11:39:59.072Z,4.42
2019-03-08T11:43:00.344Z,3.95
2019-03-08T11:46:08.711Z,4.17
2019-03-08T11:49:29.092Z,4.50
2019-03-08T11:52:37.689Z,3.35
2019-03-08T11:55:43.295Z,5.03
2019-03-08T11:59:03.887Z,4.55
2019-03-08T12:02:21.578Z,7.90
2019-03-08T12:05:36.912Z,5.47
2019-03-08T12:08:35.132Z,5.92
2019-03-08T12:11:46.542Z,6.03
2019-03-08T12:14:50.565Z,7.50
2019-03-08T12:17:47.763Z,4.42
2019-03-08T12:20:49.969Z,16.82
2019-03-08T12:23:42.916Z,20.85
2019-03-08T12:26:48.643Z,27.73
2019-03-08T12:29:41.731Z,32.17
2019-03-08T12:32:56.519Z,36.77
2019-03-08T12:35:53.759Z,30.97
2019-03-08T12:38:54.511Z,42.98
2019-03-08T12:41:52.555Z,25.20
2019-03-08T12:44:47.692Z,26.42
2019-03-08T12:47:42.463Z,22.70
2019-03-08T12:51:03.051Z,20.08
2019-03-08T12:54:00.343Z,38.15
2019-03-08T12:57:11.915Z,125.40
2019-03-08T13:00:26.805Z,113.32
2019-03-08T13:03:30.654Z,105.35
2019-03-08T13:06:48.368Z,103.65
2019-03-08T13:09:46.507Z,138.03
2019-03-08T13:12:32.675Z,112.65
2019-03-08T13:15:19.143Z,97.88
2019-03-08T13:18:05.427Z,79.22
2019-03-08T13:20:51.771Z,75.20
2019-03-08T13:23:38.211Z,56.77
2019-03-08T13:26:24.531Z,63.50
2019-03-08T13:29:11.024Z,83.50
2019-03-08T13:31:58.689Z,64.22
2019-03-08T13:34:45.264Z,50.33
2019-03-08T13:37:31.616Z,51.98
2019-03-08T13:40:18.064Z,56.08
2019-03-08T13:43:04.338Z,36.33
2019-03-08T13:45:51.496Z,42.15
2019-03-08T13:48:38.925Z,34.58
2019-03-08T13:51:25.240Z,37.00
2019-03-08T13:54:12.185Z,39.58
2019-03-08T13:56:58.851Z,32.85
2019-03-08T13:59:45.100Z,27.55
2019-03-08T14:02:31.727Z,22.70
2019-03-08T14:05:18.131Z,23.02
2019-03-08T14:08:04.415Z,24.45
2019-03-08T14:10:51.734Z,20.75
2019-03-08T14:13:39.815Z,22.17
2019-03-08T14:16:26.072Z,20.75
2019-03-08T14:19:12.631Z,12.15
2019-03-08T14:21:59.088Z,17.95
2019-03-08T14:24:45.339Z,18.35
2019-03-08T14:27:31.548Z,17.70
2019-03-08T14:30:19.376Z,11.48
2019-03-08T14:33:05.991Z,16.52
2019-03-08T14:35:52.985Z,19.50
2019-03-08T14:38:39.330Z,15.58
2019-03-08T14:41:40.033Z,11.73
2019-03-08T14:44:55.349Z,7.83
2019-03-08T14:47:47.690Z,9.43
2019-03-08T14:50:35.591Z,9.35
2019-03-08T14:53:21.550Z,10.10
2019-03-08T14:56:07.729Z,11.08
2019-03-08T14:58:54.175Z,13.85
2019-03-08T15:01:41.363Z,11.48
2019-03-08T15:04:29.489Z,13.78
2019-03-08T15:07:17.020Z,6.17
2019-03-08T15:10:06.169Z,4.97
2019-03-08T15:12:53.077Z,8.33
2019-03-08T15:15:39.608Z,11.00
2019-03-08T15:18:29.610Z,6.95
2019-03-08T15:21:14.671Z,10.28
2019-03-08T15:24:01.047Z,5.78
2019-03-08T15:26:47.795Z,6.78
2019-03-08T15:29:34.073Z,7.03
2019-03-08T15:32:20.835Z,9.38
2019-03-08T15:35:09.011Z,4.30
2019-03-08T15:37:55.061Z,6.67
2019-03-08T15:40:41.366Z,6.62
2019-03-08T15:43:29.014Z,4.90
2019-03-08T15:46:18.744Z,5.67
2019-03-08T15:49:03.351Z,6.55
2019-03-08T15:51:49.719Z,4.05
2019-03-08T15:54:36.157Z,5.42
2019-03-08T15:57:22.405Z,3.67
2019-03-08T16:00:14.860Z,3.42
2019-03-08T16:03:01.278Z,4.70
2019-03-08T16:05:48.147Z,5.15
2019-03-08T16:08:35.867Z,3.45
2019-03-08T16:11:22.715Z,3.60
2019-03-08T16:14:09.388Z,3.25
2019-03-08T16:16:57.204Z,2.92
2019-03-08T16:19:43.259Z,3.72
2019-03-08T16:22:30.114Z,2.72
2019-03-08T16:25:17.855Z,4.72
2019-03-08T16:28:04.167Z,3.65
2019-03-08T16:30:55.117Z,2.80
2019-03-08T16:33:44.967Z,3.67
2019-03-08T16:36:39.129Z,4.22
2019-03-08T16:39:35.799Z,3.75
2019-03-08T16:42:48.040Z,3.52
2019-03-08T16:45:46.287Z,4.70
2019-03-08T16:48:54.473Z,3.72
2019-03-08T16:52:06.967Z,3.98
2019-03-08T16:55:12.024Z,4.28
2019-03-08T16:58:35.816Z,2.30
2019-03-08T17:01:44.007Z,2.87
2019-03-08T17:04:35.855Z,4.17
2019-03-08T17:07:38.383Z,1.98
2019-03-08T17:10:38.977Z,2.37
2019-03-08T17:13:47.743Z,2.95
2019-03-08T17:17:11.296Z,3.95
2019-03-08T17:20:16.884Z,3.12
2019-03-08T17:23:25.752Z,4.58
2019-03-08T17:26:27.029Z,2.72
2019-03-08T17:29:22.427Z,2.37
2019-03-08T17:32:30.988Z,1.98
2019-03-08T17:35:39.567Z,2.75
2019-03-08T17:38:36.002Z,3.12
2019-03-08T17:41:41.444Z,2.00
2019-03-08T17:45:01.720Z,2.85
2019-03-08T17:48:11.431Z,4.15
2019-03-08T17:51:16.900Z,2.12
2019-03-08T17:54:19.770Z,2.70
2019-03-08T17:57:23.884Z,4.72
2019-03-08T18:00:46.085Z,3.90
2019-03-08T18:03:46.360Z,1.77
2019-03-08T18:06:39.792Z,2.67
2019-03-08T18:09:32.774Z,2.47
2019-03-08T18:12:36.627Z,1.92
2019-03-08T18:15:36.194Z,5.15
2019-03-08T18:18:41.893Z,4.00
2019-03-08T18:21:41.781Z,2.70
2019-03-08T18:24:51.495Z,3.75
2019-03-08T18:28:12.076Z,4.30
2019-03-08T18:31:27.877Z,2.90
2019-03-08T18:34:33.820Z,1.98
2019-03-08T18:37:27.991Z,4.58
2019-03-08T18:40:20.899Z,2.47
2019-03-08T18:43:28.977Z,2.02
2019-03-08T18:46:43.073Z,2.02
2019-03-08T18:49:40.668Z,2.65
2019-03-08T18:52:42.183Z,2.60
2019-03-08T18:55:46.157Z,3.10
2019-03-08T18:58:55.260Z,2.72
2019-03-08T19:02:04.396Z,4.08
2019-03-08T19:05:09.127Z,2.95
2019-03-08T19:08:18.192Z,1.85
2019-03-08T19:11:18.908Z,2.98
2019-03-08T19:14:17.363Z,2.98
2019-03-08T19:17:17.708Z,3.60
2019-03-08T19:20:27.776Z,3.15
2019-03-08T19:23:39.586Z,3.70
2019-03-08T19:26:43.946Z,5.03
2019-03-08T19:29:58.631Z,3.05
2019-03-08T19:33:10.831Z,2.00
2019-03-08T19:36:02.085Z,2.72
2019-03-08T19:39:13.100Z,4.50
2019-03-08T19:42:07.956Z,2.65
2019-03-08T19:45:07.346Z,3.92
2019-03-08T19:48:19.373Z,3.00
2019-03-08T19:51:23.667Z,3.25
2019-03-08T19:54:15.400Z,3.10
2019-03-08T19:57:24.243Z,3.95
2019-03-08T20:00:31.341Z,3.17
2019-03-08T20:03:41.725Z,2.85
2019-03-08T20:06:52.945Z,2.98
2019-03-08T20:10:04.823Z,4.12
2019-03-08T20:13:13.591Z,3.08
2019-03-08T20:16:14.545Z,2.92
2019-03-08T20:19:23.360Z,2.58
2019-03-08T20:22:44.379Z,4.00
2019-03-08T20:25:43.716Z,3.08
2019-03-08T20:28:44.433Z,1.57
2019-03-08T20:31:57.367Z,1.47
2019-03-08T20:35:18.045Z,3.52
2019-03-08T20:38:14.623Z,2.87
2019-03-08T20:41:25.864Z,3.15
2019-03-08T20:44:16.693Z,3.58
2019-03-08T20:47:12.228Z,4.28
2019-03-08T20:49:58.471Z,2.87
2019-03-08T20:52:44.801Z,3.00
2019-03-08T20:55:31.303Z,3.05
2019-03-08T20:58:18.423Z,2.98
2019-03-08T21:01:04.683Z,2.62
2019-03-08T21:03:50.991Z,2.25
2019-03-08T21:06:37.544Z,4.33
2019-03-08T21:09:24.092Z,3.72
2019-03-08T21:12:10.388Z,2.27
2019-03-08T21:14:57.435Z,2.85
2019-03-08T21:17:43.692Z,1.98
2019-03-08T21:20:30.476Z,2.10
2019-03-08T21:23:17.206Z,2.95
2019-03-08T21:26:03.302Z,1.67
2019-03-08T21:28:49.548Z,3.05
2019-03-08T21:31:35.996Z,4.10
2019-03-08T21:34:22.194Z,2.95
2019-03-08T21:37:08.255Z,3.45
2019-03-08T21:39:54.516Z,3.25
2019-03-08T21:42:41.065Z,2.55
2019-03-08T21:45:27.439Z,2.20
2019-03-08T21:48:13.980Z,3.27
2019-03-08T21:51:01.331Z,3.05
2019-03-08T21:53:47.760Z,2.90
2019-03-08T21:56:33.995Z,3.62
2019-03-08T21:59:20.616Z,4.05
2019-03-08T22:02:07.087Z,1.98
2019-03-08T22:04:58.488Z,4.83
2019-03-08T22:07:44.764Z,2.62
2019-03-08T22:10:41.541Z,2.27
2019-03-08T22:13:27.575Z,3.80
2019-03-08T22:16:13.713Z,3.17
2019-03-08T22:19:00.188Z,1.85
2019-03-08T22:21:46.439Z,2.00
2019-03-08T22:24:32.911Z,5.47
2019-03-08T22:27:19.832Z,2.75
2019-03-08T22:30:09.093Z,1.90
2019-03-08T22:32:55.880Z,3.50
2019-03-08T22:35:42.372Z,2.87
2019-03-08T22:38:28.616Z,5.58
2019-03-08T22:41:14.921Z,4.40
2019-03-08T22:44:01.491Z,1.77
2019-03-08T22:46:47.728Z,5.00
2019-03-08T22:49:34.603Z,2.33
2019-03-08T22:52:20.903Z,2.45
2019-03-08T22:55:09.156Z,3.62
2019-03-08T22:57:55.535Z,3.15
2019-03-08T23:01:08.705Z,3.65
2019-03-08T23:03:56.267Z,3.85
2019-03-08T23:06:42.840Z,2.10
2019-03-08T23:09:29.120Z,5.72
2019-03-08T23:12:15.572Z,3.45
2019-03-08T23:15:01.973Z,2.58
2019-03-08T23:17:48.340Z,1.82
2019-03-08T23:20:34.612Z,2.50
2019-03-08T23:23:21.265Z,4.08
2019-03-08T23:26:07.561Z,3.10
2019-03-08T23:29:10.344Z,4.10
2019-03-08T23:32:06.603Z,3.95
2019-03-08T23:34:52.983Z,2.90
2019-03-08T23:37:39.447Z,2.67
2019-03-08T23:40:25.812Z,2.98
2019-03-08T23:43:12.084Z,2.55
2019-03-08T23:46:00.829Z,2.20
2019-03-08T23:48:46.804Z,2.40
2019-03-08T23:51:33.324Z,3.55
2019-03-08T23:54:19.874Z,2.10
2019-03-08T23:57:06.385Z,3.92
2019-03-08T23:59:53.843Z,3.12
